createdAt,value
2023-04-08T00:01:58.489Z,2.23
2023-04-08T00:04:25.674Z,1.87
2023-04-08T00:06:53.902Z,1.77
2023-04-08T00:09:20.863Z,2.00
2023-04-08T00:11:47.618Z,2.13
2023-04-08T00:14:14.428Z,1.70
2023-04-08T00:16:41.344Z,2.07
2023-04-08T00:19:08.200Z,1.90
2023-04-08T00:21:35.220Z,2.23
2023-04-08T00:24:04.351Z,2.00
2023-04-08T00:26:31.430Z,2.00
2023-04-08T00:28:58.316Z,2.40
2023-04-08T00:31:25.555Z,2.10
2023-04-08T00:33:52.395Z,2.40
2023-04-08T00:36:19.299Z,2.47
2023-04-08T00:38:46.395Z,2.10
2023-04-08T00:41:14.632Z,1.93
2023-04-08T00:43:41.566Z,2.00
2023-04-08T00:46:09.581Z,2.30
2023-04-08T00:48:36.496Z,1.80
2023-04-08T00:51:03.583Z,2.07
2023-04-08T00:53:31.227Z,1.63
2023-04-08T00:55:59.942Z,2.10
2023-04-08T00:58:29.662Z,1.80
2023-04-08T01:01:03.737Z,1.70
2023-04-08T01:03:42.410Z,1.60
2023-04-08T01:06:20.299Z,1.50
2023-04-08T01:08:49.794Z,1.80
2023-04-08T01:11:17.627Z,1.60
2023-04-08T01:13:47.491Z,1.50
2023-04-08T01:16:16.804Z,1.50
2023-04-08T01:18:45.265Z,1.50
2023-04-08T01:21:14.739Z,1.30
2023-04-08T01:23:54.556Z,1.60
2023-04-08T01:26:25.971Z,1.57
2023-04-08T01:28:54.909Z,1.60
2023-04-08T01:31:22.494Z,1.93
2023-04-08T01:33:51.018Z,1.70
2023-04-08T01:36:19.578Z,1.80
2023-04-08T01:38:47.644Z,1.67
2023-04-08T01:41:17.174Z,1.90
2023-04-08T01:43:47.273Z,1.50
2023-04-08T01:46:15.448Z,2.30
2023-04-08T01:48:42.954Z,3.07
2023-04-08T01:51:11.406Z,1.90
2023-04-08T01:53:38.365Z,1.50
2023-04-08T01:56:09.174Z,1.67
2023-04-08T01:58:39.935Z,1.60
2023-04-08T02:01:12.157Z,1.93
2023-04-08T02:03:41.518Z,2.20
2023-04-08T02:06:08.591Z,2.13
2023-04-08T02:08:36.504Z,1.80
2023-04-08T02:11:03.826Z,1.50
2023-04-08T02:13:32.233Z,2.00
2023-04-08T02:16:06.441Z,1.83
2023-04-08T02:18:37.338Z,1.83
2023-04-08T02:21:11.276Z,1.90
2023-04-08T02:23:39.880Z,2.10
2023-04-08T02:26:12.730Z,2.33
2023-04-08T02:28:41.784Z,2.10
2023-04-08T02:31:15.194Z,2.53
2023-04-08T02:33:44.105Z,2.03
2023-04-08T02:36:12.442Z,2.80
2023-04-08T02:38:39.347Z,2.00
2023-04-08T02:41:06.142Z,1.90
2023-04-08T02:43:32.918Z,2.50
2023-04-08T02:46:03.399Z,2.90
2023-04-08T02:48:31.139Z,3.20
2023-04-08T02:50:59.292Z,4.27
2023-04-08T02:53:26.452Z,3.73
2023-04-08T02:55:53.352Z,3.47
2023-04-08T02:58:20.364Z,2.87
2023-04-08T03:00:47.249Z,2.77
2023-04-08T03:03:14.297Z,2.80
2023-04-08T03:05:41.181Z,2.60
2023-04-08T03:08:09.372Z,2.83
2023-04-08T03:10:36.389Z,1.90
2023-04-08T03:13:03.161Z,1.90
2023-04-08T03:15:30.030Z,2.30
2023-04-08T03:17:56.809Z,2.80
2023-04-08T03:20:23.678Z,2.90
2023-04-08T03:22:50.534Z,3.07
2023-04-08T03:25:18.918Z,3.27
2023-04-08T03:27:45.943Z,3.10
2023-04-08T03:30:12.943Z,3.10
2023-04-08T03:32:39.983Z,3.07
2023-04-08T03:35:07.450Z,2.40
2023-04-08T03:37:34.271Z,2.40
2023-04-08T03:40:01.240Z,2.90
2023-04-08T03:42:29.461Z,2.43
2023-04-08T03:44:56.354Z,2.93
2023-04-08T03:47:25.179Z,2.30
2023-04-08T03:49:53.498Z,2.63
2023-04-08T03:52:20.481Z,2.30
2023-04-08T03:54:47.304Z,2.37
2023-04-08T03:57:14.290Z,2.53
2023-04-08T03:59:42.448Z,2.53
2023-04-08T04:02:09.334Z,2.23
2023-04-08T04:04:37.126Z,2.23
2023-04-08T04:07:04.134Z,2.10
2023-04-08T04:09:31.129Z,2.80
2023-04-08T04:12:00.748Z,2.93
2023-04-08T04:14:27.686Z,2.67
2023-04-08T04:16:55.892Z,2.87
2023-04-08T04:19:22.651Z,3.33
2023-04-08T04:21:49.446Z,3.50
2023-04-08T04:24:16.283Z,3.67
2023-04-08T04:26:43.108Z,3.80
2023-04-08T04:29:09.949Z,3.73
2023-04-08T04:31:36.842Z,3.13
2023-04-08T04:34:05.710Z,3.70
2023-04-08T04:36:32.897Z,3.53
2023-04-08T04:38:59.702Z,3.37
2023-04-08T04:41:27.313Z,3.17
2023-04-08T04:43:54.923Z,3.93
2023-04-08T04:46:21.730Z,4.83
2023-04-08T04:48:48.746Z,5.17
2023-04-08T04:51:17.106Z,6.13
2023-04-08T04:53:43.920Z,5.93
2023-04-08T04:56:11.080Z,6.03
2023-04-08T04:58:37.874Z,6.10
2023-04-08T05:01:04.782Z,5.10
2023-04-08T05:03:32.066Z,6.17
2023-04-08T05:05:58.916Z,5.57
2023-04-08T05:08:28.143Z,5.57
2023-04-08T05:10:56.096Z,6.97
2023-04-08T05:13:23.015Z,7.30
2023-04-08T05:15:49.847Z,6.20
2023-04-08T05:18:16.657Z,5.50
2023-04-08T05:20:43.546Z,5.47
2023-04-08T05:23:10.520Z,5.97
2023-04-08T05:25:38.965Z,6.80
2023-04-08T05:28:05.888Z,6.13
2023-04-08T05:30:32.731Z,5.83
2023-04-08T05:33:00.622Z,6.00
2023-04-08T05:35:27.962Z,6.50
2023-04-08T05:37:54.833Z,6.73
2023-04-08T05:40:21.663Z,5.73
2023-04-08T05:42:49.912Z,6.40
2023-04-08T05:45:17.210Z,6.97
2023-04-08T05:47:44.093Z,6.43
2023-04-08T05:50:11.522Z,6.47
2023-04-08T05:52:41.893Z,19.10
2023-04-08T05:55:09.297Z,17.63
2023-04-08T05:57:36.614Z,28.37
2023-04-08T06:00:06.434Z,22.33
2023-04-08T06:02:33.541Z,11.13
2023-04-08T06:05:00.529Z,6.70
2023-04-08T06:07:27.467Z,6.97
2023-04-08T06:09:54.202Z,7.07
2023-04-08T06:12:21.068Z,10.93
2023-04-08T06:14:48.037Z,13.97
2023-04-08T06:17:16.246Z,7.67
2023-04-08T06:19:43.028Z,21.07
2023-04-08T06:22:09.869Z,17.10
2023-04-08T06:24:36.713Z,18.30
2023-04-08T06:27:03.679Z,10.70
2023-04-08T06:29:31.262Z,13.33
2023-04-08T06:31:58.196Z,10.90
2023-04-08T06:34:26.486Z,9.10
2023-04-08T06:36:53.501Z,8.30
2023-04-08T06:39:21.520Z,7.00
2023-04-08T06:41:48.372Z,7.40
2023-04-08T06:44:15.826Z,7.43
2023-04-08T06:46:42.627Z,7.43
2023-04-08T06:49:09.512Z,7.73
2023-04-08T06:51:37.690Z,7.87
2023-04-08T06:54:07.088Z,10.97
2023-04-08T06:56:33.941Z,26.10
2023-04-08T06:59:05.617Z,18.30
2023-04-08T07:01:32.854Z,9.40
2023-04-08T07:03:59.899Z,8.20
2023-04-08T07:06:26.761Z,9.27
2023-04-08T07:08:54.881Z,8.73
2023-04-08T07:11:22.090Z,8.60
2023-04-08T07:13:48.964Z,8.50
2023-04-08T07:16:16.088Z,7.83
2023-04-08T07:18:43.933Z,8.00
2023-04-08T07:21:10.817Z,8.23
2023-04-08T07:23:37.639Z,7.90
2023-04-08T07:26:05.953Z,8.03
2023-04-08T07:28:32.757Z,8.63
2023-04-08T07:31:09.828Z,8.60
2023-04-08T07:33:36.700Z,8.03
2023-04-08T07:36:03.763Z,8.30
2023-04-08T07:38:30.999Z,7.23
2023-04-08T07:40:57.826Z,8.20
2023-04-08T07:43:25.988Z,8.57
2023-04-08T07:45:52.946Z,8.33
2023-04-08T07:48:19.740Z,7.60
2023-04-08T07:51:08.402Z,7.57
2023-04-08T07:53:34.565Z,8.40
2023-04-08T07:56:01.797Z,8.57
2023-04-08T07:58:31.961Z,7.90
2023-04-08T08:00:59.513Z,7.40
2023-04-08T08:03:27.276Z,7.90
2023-04-08T08:05:54.253Z,7.77
2023-04-08T08:08:21.328Z,7.67
2023-04-08T08:10:48.162Z,7.53
2023-04-08T08:13:17.213Z,7.17
2023-04-08T08:15:45.501Z,7.80
2023-04-08T08:18:12.280Z,8.53
2023-04-08T08:20:39.124Z,7.47
2023-04-08T08:23:06.166Z,8.03
2023-04-08T08:25:32.922Z,6.93
2023-04-08T08:27:59.657Z,7.57
2023-04-08T08:30:26.985Z,8.90
2023-04-08T08:32:56.445Z,8.17
2023-04-08T08:35:23.279Z,8.33
2023-04-08T08:37:52.179Z,7.77
2023-04-08T08:40:19.164Z,8.23
2023-04-08T08:42:52.321Z,8.90
2023-04-08T08:45:20.454Z,7.83
2023-04-08T08:47:49.719Z,8.27
2023-04-08T08:50:19.601Z,8.20
2023-04-08T08:52:50.293Z,7.77
2023-04-08T08:55:35.061Z,7.93
2023-04-08T08:58:07.561Z,7.47
2023-04-08T09:00:35.764Z,8.40
2023-04-08T09:03:17.044Z,7.90
2023-04-08T09:05:53.414Z,7.90
2023-04-08T09:08:28.687Z,8.43
2023-04-08T09:10:56.315Z,8.17
2023-04-08T09:13:24.642Z,8.50
2023-04-08T09:16:06.162Z,8.18
2023-04-08T09:18:33.396Z,7.37
2023-04-08T09:21:02.520Z,8.53
2023-04-08T09:23:40.335Z,9.20
2023-04-08T09:26:11.934Z,8.20
2023-04-08T09:28:39.435Z,8.53
2023-04-08T09:31:20.997Z,8.87
2023-04-08T09:33:48.621Z,8.40
2023-04-08T09:36:17.493Z,8.23
2023-04-08T09:38:45.018Z,7.23
2023-04-08T09:41:16.155Z,8.10
2023-04-08T09:43:49.126Z,8.40
2023-04-08T09:46:18.287Z,7.70
2023-04-08T09:48:51.316Z,8.23
2023-04-08T09:51:22.479Z,9.20
2023-04-08T09:53:57.831Z,8.40
2023-04-08T09:56:27.007Z,7.70
2023-04-08T09:58:58.880Z,7.90
2023-04-08T10:01:32.457Z,7.40
2023-04-08T10:04:00.994Z,7.27
2023-04-08T10:06:31.314Z,7.53
2023-04-08T10:08:58.962Z,7.80
2023-04-08T10:11:26.228Z,7.17
2023-04-08T10:13:53.506Z,6.43
2023-04-08T10:16:25.919Z,7.03
2023-04-08T10:18:55.789Z,7.53
2023-04-08T10:21:39.858Z,6.70
2023-04-08T10:24:09.370Z,5.53
2023-04-08T10:26:38.649Z,5.30
2023-04-08T10:29:41.961Z,6.10
2023-04-08T10:32:08.927Z,6.37
2023-04-08T10:34:52.751Z,5.80
2023-04-08T10:37:21.070Z,5.87
2023-04-08T10:39:51.363Z,4.87
2023-04-08T10:42:18.367Z,5.70
2023-04-08T10:44:46.302Z,5.53
2023-04-08T10:47:13.493Z,5.37
2023-04-08T10:49:41.612Z,4.77
2023-04-08T10:52:09.098Z,4.57
2023-04-08T10:54:38.489Z,3.90
2023-04-08T10:57:05.972Z,4.17
2023-04-08T10:59:33.050Z,4.40
2023-04-08T11:02:01.418Z,3.77
2023-04-08T11:04:28.711Z,3.87
2023-04-08T11:06:55.631Z,3.50
2023-04-08T11:09:22.476Z,3.70
2023-04-08T11:11:52.175Z,3.60
2023-04-08T11:14:21.900Z,3.70
2023-04-08T11:16:48.808Z,3.47
2023-04-08T11:19:15.691Z,4.20
2023-04-08T11:21:42.741Z,3.40
2023-04-08T11:24:13.542Z,4.03
2023-04-08T11:26:41.519Z,4.23
2023-04-08T11:29:14.135Z,3.83
2023-04-08T11:31:42.200Z,4.63
2023-04-08T11:34:09.347Z,4.53
2023-04-08T11:36:36.977Z,3.97
2023-04-08T11:39:08.247Z,4.00
2023-04-08T11:41:39.381Z,4.00
2023-04-08T11:44:07.075Z,4.10
2023-04-08T11:46:36.681Z,4.07
2023-04-08T11:49:06.312Z,4.33
2023-04-08T11:51:34.532Z,4.07
2023-04-08T11:54:04.433Z,4.03
2023-04-08T11:56:33.493Z,4.23
2023-04-08T11:59:00.405Z,6.40
2023-04-08T12:01:27.329Z,5.77
2023-04-08T12:03:57.496Z,5.40
2023-04-08T12:06:27.215Z,5.20
2023-04-08T12:08:55.184Z,5.03
2023-04-08T12:11:22.180Z,5.23
2023-04-08T12:13:50.812Z,4.70
2023-04-08T12:16:18.109Z,4.03
2023-04-08T12:18:45.009Z,4.83
2023-04-08T12:21:13.214Z,4.40
2023-04-08T12:23:39.995Z,4.30
2023-04-08T12:26:07.376Z,4.27
2023-04-08T12:28:35.342Z,4.60
2023-04-08T12:31:02.935Z,4.23
2023-04-08T12:33:30.433Z,4.63
2023-04-08T12:36:00.579Z,4.53
2023-04-08T12:38:28.732Z,4.73
2023-04-08T12:40:56.003Z,4.53
2023-04-08T12:43:23.745Z,4.33
2023-04-08T12:45:51.205Z,4.80
2023-04-08T12:48:18.142Z,3.93
2023-04-08T12:50:45.180Z,4.30
2023-04-08T12:53:12.085Z,4.27
2023-04-08T12:55:40.362Z,4.20
2023-04-08T12:58:07.282Z,4.13
2023-04-08T13:00:34.310Z,4.37
2023-04-08T13:03:01.199Z,4.60
2023-04-08T13:05:41.876Z,5.50
2023-04-08T13:08:09.378Z,5.47
2023-04-08T13:10:36.396Z,5.23
2023-04-08T13:13:04.723Z,5.43
2023-04-08T13:15:31.638Z,5.43
2023-04-08T13:17:58.540Z,5.03
2023-04-08T13:20:26.238Z,4.73
2023-04-08T13:22:53.140Z,3.77
2023-04-08T13:25:20.351Z,3.77
2023-04-08T13:27:47.188Z,4.43
2023-04-08T13:30:15.605Z,3.63
2023-04-08T13:32:42.540Z,4.17
2023-04-08T13:35:09.792Z,4.07
2023-04-08T13:37:36.811Z,4.53
2023-04-08T13:40:04.444Z,4.87
2023-04-08T13:42:31.459Z,5.20
2023-04-08T13:44:58.221Z,5.80
2023-04-08T13:47:27.137Z,5.00
2023-04-08T13:49:54.037Z,4.87
2023-04-08T13:52:20.904Z,4.93
2023-04-08T13:54:47.875Z,4.47
2023-04-08T13:57:14.801Z,4.77
2023-04-08T13:59:43.304Z,4.87
2023-04-08T14:02:11.497Z,4.30
2023-04-08T14:04:40.010Z,4.53
2023-04-08T14:07:07.029Z,4.53
2023-04-08T14:09:33.876Z,4.23
2023-04-08T14:12:00.750Z,4.13
2023-04-08T14:14:27.683Z,3.87
2023-04-08T14:16:54.778Z,3.70
2023-04-08T14:19:21.636Z,3.80
2023-04-08T14:21:49.804Z,3.53
2023-04-08T14:24:16.732Z,3.90
2023-04-08T14:26:43.630Z,4.20
2023-04-08T14:29:10.854Z,4.17
2023-04-08T14:31:37.779Z,4.07
2023-04-08T14:34:05.012Z,4.33
2023-04-08T14:36:32.822Z,4.50
2023-04-08T14:39:01.277Z,4.50
2023-04-08T14:41:28.155Z,4.67
2023-04-08T14:43:55.104Z,4.40
2023-04-08T14:46:22.156Z,4.73
2023-04-08T14:48:49.263Z,5.23
2023-04-08T14:51:16.406Z,5.33
2023-04-08T14:53:43.264Z,5.50
2023-04-08T14:56:11.778Z,5.03
2023-04-08T14:58:38.628Z,5.73
2023-04-08T15:01:05.557Z,5.60
2023-04-08T15:03:32.618Z,5.97
2023-04-08T15:05:59.879Z,6.20
2023-04-08T15:08:26.954Z,6.83
2023-04-08T15:10:53.885Z,5.90
2023-04-08T15:13:22.908Z,6.37
2023-04-08T15:15:50.100Z,5.93
2023-04-08T15:18:16.956Z,6.17
2023-04-08T15:20:43.773Z,6.37
2023-04-08T15:23:10.639Z,6.27
2023-04-08T15:25:37.466Z,6.10
2023-04-08T15:28:04.587Z,5.30
2023-04-08T15:30:35.519Z,6.77
2023-04-08T15:33:03.594Z,5.37
2023-04-08T15:35:30.599Z,5.83
2023-04-08T15:37:57.603Z,6.07
2023-04-08T15:40:25.752Z,6.10
2023-04-08T15:42:52.998Z,5.30
2023-04-08T15:45:20.079Z,5.70
2023-04-08T15:47:48.351Z,5.80
2023-04-08T15:50:18.211Z,5.37
2023-04-08T15:52:45.247Z,5.63
2023-04-08T15:55:12.324Z,5.73
2023-04-08T15:57:39.329Z,6.10
2023-04-08T16:00:10.838Z,5.77
2023-04-08T16:02:38.032Z,6.33
2023-04-08T16:05:07.219Z,5.80
2023-04-08T16:07:34.135Z,6.10
2023-04-08T16:10:01.560Z,5.97
2023-04-08T16:12:28.771Z,5.80
2023-04-08T16:14:55.561Z,5.90
2023-04-08T16:17:22.948Z,6.33
2023-04-08T16:19:50.657Z,5.90
2023-04-08T16:22:19.355Z,6.10
2023-04-08T16:24:46.250Z,6.70
2023-04-08T16:27:13.056Z,6.63
2023-04-08T16:29:39.884Z,7.03
2023-04-08T16:32:07.232Z,6.80
2023-04-08T16:34:34.513Z,6.90
2023-04-08T16:37:01.333Z,7.90
2023-04-08T16:39:29.643Z,7.53
2023-04-08T16:41:56.529Z,7.77
2023-04-08T16:44:23.838Z,7.87
2023-04-08T16:46:50.766Z,7.80
2023-04-08T16:49:18.343Z,7.60
2023-04-08T16:51:45.354Z,7.63
2023-04-08T16:54:12.244Z,7.07
2023-04-08T16:56:44.338Z,7.70
2023-04-08T16:59:12.086Z,6.77
2023-04-08T17:01:39.106Z,7.53
2023-04-08T17:04:06.164Z,7.00
2023-04-08T17:06:35.704Z,7.00
2023-04-08T17:09:03.840Z,6.73
2023-04-08T17:11:30.982Z,6.33
2023-04-08T17:13:59.250Z,7.40
2023-04-08T17:16:26.214Z,7.10
2023-04-08T17:18:53.050Z,7.33
2023-04-08T17:21:21.192Z,6.57
2023-04-08T17:23:48.201Z,6.63
2023-04-08T17:26:15.293Z,6.40
2023-04-08T17:28:43.376Z,6.63
2023-04-08T17:31:11.761Z,6.40
2023-04-08T17:33:38.530Z,6.90
2023-04-08T17:36:06.583Z,6.97
2023-04-08T17:38:33.540Z,6.03
2023-04-08T17:41:00.461Z,6.17
2023-04-08T17:43:27.345Z,6.40
2023-04-08T17:45:58.446Z,5.73
2023-04-08T17:48:26.785Z,5.30
2023-04-08T17:50:59.471Z,4.37
2023-04-08T17:53:26.217Z,4.20
2023-04-08T17:55:54.661Z,4.13
2023-04-08T17:58:21.634Z,3.73
2023-04-08T18:00:48.986Z,3.90
2023-04-08T18:03:16.160Z,4.13
2023-04-08T18:05:45.284Z,4.03
2023-04-08T18:08:12.155Z,3.77
2023-04-08T18:10:38.934Z,3.60
2023-04-08T18:13:11.363Z,3.03
2023-04-08T18:15:39.024Z,2.97
2023-04-08T18:18:05.860Z,3.20
2023-04-08T18:20:35.548Z,3.13
2023-04-08T18:23:04.399Z,3.20
2023-04-08T18:25:32.303Z,3.17
2023-04-08T18:27:59.510Z,2.90
2023-04-08T18:30:26.453Z,3.23
2023-04-08T18:32:53.417Z,3.30
2023-04-08T18:35:20.252Z,3.23
2023-04-08T18:37:47.022Z,3.43
2023-04-08T18:40:15.571Z,3.00
2023-04-08T18:42:42.408Z,2.83
2023-04-08T18:45:09.678Z,3.30
2023-04-08T18:47:37.578Z,3.10
2023-04-08T18:50:05.044Z,3.50
2023-04-08T18:52:32.318Z,3.13
2023-04-08T18:55:02.601Z,2.87
2023-04-08T18:57:30.869Z,3.27
2023-04-08T18:59:57.663Z,3.47
2023-04-08T19:02:24.682Z,3.30
2023-04-08T19:04:52.827Z,4.07
2023-04-08T19:07:19.694Z,3.50
2023-04-08T19:09:46.559Z,3.40
2023-04-08T19:12:13.388Z,3.67
2023-04-08T19:14:42.079Z,3.87
2023-04-08T19:17:09.855Z,3.90
2023-04-08T19:19:37.046Z,3.83
2023-04-08T19:22:05.644Z,3.17
2023-04-08T19:24:32.866Z,3.63
2023-04-08T19:26:59.743Z,4.47
2023-04-08T19:29:29.599Z,4.30
2023-04-08T19:31:59.355Z,3.60
2023-04-08T19:34:26.504Z,4.30
2023-04-08T19:36:53.424Z,4.27
2023-04-08T19:39:20.608Z,3.77
2023-04-08T19:41:47.699Z,4.60
2023-04-08T19:44:14.669Z,4.47
2023-04-08T19:46:41.874Z,4.67
2023-04-08T19:49:10.146Z,4.57
2023-04-08T19:51:36.978Z,5.03
2023-04-08T19:54:03.854Z,4.13
2023-04-08T19:56:33.924Z,4.33
2023-04-08T19:59:01.328Z,4.50
2023-04-08T20:01:28.543Z,4.73
2023-04-08T20:03:55.655Z,4.83
2023-04-08T20:06:23.915Z,5.30
2023-04-08T20:08:52.901Z,4.50
2023-04-08T20:11:20.458Z,4.47
2023-04-08T20:13:47.640Z,5.30
2023-04-08T20:16:15.000Z,5.07
2023-04-08T20:18:42.095Z,4.63
2023-04-08T20:21:13.623Z,4.67
2023-04-08T20:23:44.405Z,5.13
2023-04-08T20:26:12.220Z,5.23
2023-04-08T20:28:39.404Z,5.20
2023-04-08T20:31:07.405Z,4.70
2023-04-08T20:33:34.461Z,4.67
2023-04-08T20:36:01.469Z,5.17
2023-04-08T20:38:28.349Z,5.30
2023-04-08T20:40:56.561Z,5.60
2023-04-08T20:43:23.512Z,4.90
2023-04-08T20:45:50.382Z,5.33
2023-04-08T20:48:17.242Z,5.17
2023-04-08T20:50:44.905Z,5.00
2023-04-08T20:53:12.857Z,5.27
2023-04-08T20:55:39.709Z,5.97
2023-04-08T20:58:07.960Z,4.87
2023-04-08T21:00:34.968Z,4.90
2023-04-08T21:03:01.899Z,5.33
2023-04-08T21:05:28.869Z,5.97
2023-04-08T21:07:55.796Z,5.20
2023-04-08T21:10:22.910Z,4.77
2023-04-08T21:12:49.825Z,5.17
2023-04-08T21:15:18.087Z,4.83
2023-04-08T21:17:44.980Z,4.83
2023-04-08T21:20:12.736Z,5.30
2023-04-08T21:22:39.648Z,4.80
2023-04-08T21:25:07.243Z,4.50
2023-04-08T21:27:34.084Z,5.00
2023-04-08T21:30:01.052Z,5.27
2023-04-08T21:32:30.361Z,5.40
2023-04-08T21:34:57.471Z,4.67
2023-04-08T21:37:24.254Z,5.30
2023-04-08T21:39:51.447Z,5.03
2023-04-08T21:42:22.501Z,4.90
2023-04-08T21:44:49.554Z,5.57
2023-04-08T21:47:16.442Z,4.77
2023-04-08T21:49:44.829Z,5.43
2023-04-08T21:52:11.694Z,5.00
2023-04-08T21:54:38.710Z,5.20
2023-04-08T21:57:05.963Z,4.97
2023-04-08T21:59:32.797Z,5.10
2023-04-08T22:01:59.687Z,5.23
2023-04-08T22:04:27.558Z,5.07
2023-04-08T22:06:56.200Z,5.30
2023-04-08T22:09:23.118Z,5.30
2023-04-08T22:11:49.991Z,5.40
2023-04-08T22:14:17.599Z,5.03
2023-04-08T22:16:44.884Z,5.10
2023-04-08T22:19:11.839Z,5.43
2023-04-08T22:21:38.686Z,4.83
2023-04-08T22:24:06.924Z,4.83
2023-04-08T22:26:33.754Z,5.17
2023-04-08T22:29:00.653Z,4.77
2023-04-08T22:31:27.620Z,4.90
2023-04-08T22:33:54.434Z,4.67
2023-04-08T22:36:21.437Z,4.93
2023-04-08T22:38:48.361Z,4.63
2023-04-08T22:41:19.995Z,4.80
2023-04-08T22:43:47.171Z,4.80
2023-04-08T22:46:15.383Z,5.10
2023-04-08T22:48:42.227Z,5.00
2023-04-08T22:51:10.118Z,4.50
2023-04-08T22:53:37.054Z,5.10
2023-04-08T22:56:04.336Z,4.80
2023-04-08T22:58:32.631Z,5.63
2023-04-08T23:00:59.444Z,5.83
2023-04-08T23:03:26.559Z,5.73
2023-04-08T23:05:53.514Z,5.00
2023-04-08T23:08:20.357Z,6.20
2023-04-08T23:10:47.162Z,5.73
2023-04-08T23:13:14.370Z,4.97
2023-04-08T23:15:42.612Z,5.53
2023-04-08T23:18:09.509Z,5.57
2023-04-08T23:20:36.322Z,5.57
2023-04-08T23:23:03.576Z,5.63
2023-04-08T23:25:30.771Z,6.03
2023-04-08T23:27:57.726Z,5.70
2023-04-08T23:30:24.578Z,5.40
2023-04-08T23:32:52.785Z,6.23
2023-04-08T23:35:19.910Z,5.73
2023-04-08T23:37:46.701Z,6.67
2023-04-08T23:40:13.966Z,6.10
2023-04-08T23:42:40.948Z,6.33
2023-04-08T23:45:08.383Z,6.17
2023-04-08T23:47:36.924Z,6.00
2023-04-08T23:50:06.474Z,5.77
2023-04-08T23:52:33.356Z,6.37
2023-04-08T23:55:00.158Z,6.07
2023-04-08T23:57:27.026Z,6.37
2023-04-08T23:59:53.860Z,6.17
